Time;durP1;ratioP1;P1;durP2;ratioP2;P2;SDS_P1;SDS_P2;PMS_P1;PMS_P2;Temp;Humidity;BMP_temperature;BMP_pressure;BME280_temperature;BME280_humidity;BME280_pressure;Samples;Min_cycle;Max_cycle;Signal;HPM_P1;HPM_P2
2022/08/31 00:04:31;;;;;;;;;;;;;;;;;;5020372;28;20465;-75
2022/08/31 00:06:56;;;;;;;;;;;;;;;;;;5054929;28;19922;-74
2022/08/31 00:09:21;;;;;;;;;;;;;;;;;;5050752;28;19974;-74
2022/08/31 00:11:47;;;;;;;;;;;;;;;;;;5075024;28;19918;-76
2022/08/31 00:14:12;;;;;;;;;;;;;;;;;;5040530;28;19974;-76
2022/08/31 00:16:38;;;;;;;;;;;;;;;;;;5074791;28;19917;-76
2022/08/31 00:19:04;;;;;;;;;;;;;;;;;;5041318;28;19915;-76
2022/08/31 00:21:29;;;;;;;;;;;;;;;;;;5075416;28;19912;-75
2022/08/31 00:23:54;;;;;;;;;;;;;;;;;;5039825;28;19917;-76
2022/08/31 00:26:19;;;;;;;;;;;;;;;;;;5037000;28;19920;-75
2022/08/31 00:28:45;;;;;;;;;;;;;;;;;;5056153;28;19935;-74
2022/08/31 00:31:10;;;;;;;;;;;;;;;;;;5036732;28;20307;-74
2022/08/31 00:33:35;;;;;;;;;;;;;;;;;;5036616;28;19908;-75
2022/08/31 00:36:01;;;;;;;;;;;;;;;;;;5036787;28;20367;-76
2022/08/31 00:38:26;;;;;;;;;;;;;;;;;;5036810;28;20379;-76
2022/08/31 00:40:52;;;;;;;;;;;;;;;;;;5050979;28;19940;-75
2022/08/31 00:43:17;;;;;;;;;;;;;;;;;;5056299;28;20439;-76
2022/08/31 00:45:42;;;;;;;;;;;;;;;;;;5056481;28;20464;-76
2022/08/31 00:48:08;;;;;;;;;;;;;;;;;;5074205;28;19919;-74
2022/08/31 00:50:33;;;;;;;;;;;;;;;;;;5056711;28;20003;-76
2022/08/31 00:52:58;;;;;;;;;;;;;;;;;;5039342;28;19935;-73
2022/08/31 00:55:24;;;;;;;;;;;;;;;;;;5056386;28;19952;-76
2022/08/31 00:57:49;;;;;;;;;;;;;;;;;;5040096;28;20007;-77
2022/08/31 01:00:15;;;;;;;;;;;;;;;;;;5036719;28;19912;-76
2022/08/31 01:02:40;;;;;;;;;;;;;;;;;;5036108;28;19928;-76
2022/08/31 01:05:05;;;;;;;;;;;;;;;;;;5052908;28;20008;-76
2022/08/31 01:07:31;;;;;;;;;;;;;;;;;;5052589;28;20390;-76
2022/08/31 01:09:56;;;;;;;;;;;;;;;;;;5036584;28;20300;-76
2022/08/31 01:12:21;;;;;;;;;;;;;;;;;;5052922;28;19998;-76
2022/08/31 01:14:47;;;;;;;;;;;;;;;;;;5043221;28;20391;-76
2022/08/31 01:17:12;;;;;;;;;;;;;;;;;;5055878;28;19912;-76
2022/08/31 01:19:38;;;;;;;;;;;;;;;;;;5073970;28;19919;-76
2022/08/31 01:22:03;;;;;;;;;;;;;;;;;;5039311;28;19916;-76
2022/08/31 01:24:30;;;;;;;;;;;;;;;;;;5056017;28;19917;-76
2022/08/31 01:26:55;;;;;;;;;;;;;;;;;;5073698;28;20381;-75
2022/08/31 01:29:21;;;;;;;;;;;;;;;;;;5039231;28;19919;-76
2022/08/31 01:31:47;;;;;;;;;;;;;;;;;;5041294;28;19913;-76
2022/08/31 01:34:15;;;;;;;;;;;;;;;;;;5036463;28;19913;-76
2022/08/31 01:36:42;;;;;;;;;;;;;;;;;;5035593;28;19913;-74
2022/08/31 01:39:07;;;;;;;;;;;;;;;;;;5053413;28;20426;-75
2022/08/31 01:41:33;;;;;;;;;;;;;;;;;;5035696;28;19952;-76
2022/08/31 01:43:58;;;;;;;;;;;;;;;;;;5052236;28;19955;-75
2022/08/31 01:46:24;;;;;;;;;;;;;;;;;;5052012;28;20456;-77
2022/08/31 01:48:51;;;;;;;;;;;;;;;;;;5035401;28;19971;-76
2022/08/31 01:51:16;;;;;;;;;;;;;;;;;;5035525;28;19920;-75
2022/08/31 01:53:47;;;;;;;;;;;;;;;;;;5037160;28;19916;-75
2022/08/31 01:56:13;;;;;;;;;;;;;;;;;;5018980;28;19913;-75
2022/08/31 01:58:38;;;;;;;;;;;;;;;;;;5018719;28;20372;-76
2022/08/31 02:01:29;;;;;;;;;;;;;;;;;;5021486;28;19919;-76
2022/08/31 02:03:55;;;;;;;;;;;;;;;;;;5054220;28;20007;-74
2022/08/31 02:06:20;;;;;;;;;;;;;;;;;;5055209;28;19912;-75
2022/08/31 02:08:45;;;;;;;;;;;;;;;;;;5073120;28;19923;-75
2022/08/31 02:11:12;;;;;;;;;;;;;;;;;;5072798;28;19917;-76
2022/08/31 02:13:37;;;;;;;;;;;;;;;;;;5055228;28;19912;-75
2022/08/31 02:16:03;;;;;;;;;;;;;;;;;;5038456;28;19975;-76
2022/08/31 02:18:28;;;;;;;;;;;;;;;;;;5034628;28;20000;-75
2022/08/31 02:20:54;;;;;;;;;;;;;;;;;;5034869;28;19920;-75
2022/08/31 02:23:19;;;;;;;;;;;;;;;;;;5052550;28;20398;-76
2022/08/31 02:25:44;;;;;;;;;;;;;;;;;;5019582;28;19967;-75
2022/08/31 02:28:12;;;;;;;;;;;;;;;;;;5035562;28;19995;-76
2022/08/31 02:30:37;;;;;;;;;;;;;;;;;;5035662;28;19913;-75
2022/08/31 02:33:03;;;;;;;;;;;;;;;;;;5036594;28;20355;-75
2022/08/31 02:35:29;;;;;;;;;;;;;;;;;;5055784;28;19962;-76
2022/08/31 02:37:54;;;;;;;;;;;;;;;;;;5056450;28;19908;-74
2022/08/31 02:40:20;;;;;;;;;;;;;;;;;;5056868;28;20364;-76
2022/08/31 02:42:45;;;;;;;;;;;;;;;;;;5055475;28;20454;-73
2022/08/31 02:45:10;;;;;;;;;;;;;;;;;;5055372;28;20406;-74
2022/08/31 02:47:36;;;;;;;;;;;;;;;;;;5038572;28;19912;-74
2022/08/31 02:50:10;;;;;;;;;;;;;;;;;;5054877;28;19909;-75
2022/08/31 02:52:35;;;;;;;;;;;;;;;;;;5055048;28;19913;-76
2022/08/31 02:55:01;;;;;;;;;;;;;;;;;;5034853;28;20364;-76
2022/08/31 02:57:27;;;;;;;;;;;;;;;;;;5051507;28;20003;-76
2022/08/31 02:59:53;;;;;;;;;;;;;;;;;;5034487;28;19948;-76
2022/08/31 03:02:18;;;;;;;;;;;;;;;;;;5034224;28;20372;-76
2022/08/31 03:04:44;;;;;;;;;;;;;;;;;;5034198;28;20039;-76
2022/08/31 03:07:12;;;;;;;;;;;;;;;;;;5034508;28;20384;-75
2022/08/31 03:09:38;;;;;;;;;;;;;;;;;;5034118;28;19943;-75
2022/08/31 03:12:03;;;;;;;;;;;;;;;;;;5034042;28;20372;-76
2022/08/31 03:14:29;;;;;;;;;;;;;;;;;;5034250;28;19913;-76
2022/08/31 03:16:55;;;;;;;;;;;;;;;;;;5053677;28;19966;-75
2022/08/31 03:19:20;;;;;;;;;;;;;;;;;;5038745;28;20382;-75
2022/08/31 03:21:45;;;;;;;;;;;;;;;;;;5054782;28;19958;-75
2022/08/31 03:24:11;;;;;;;;;;;;;;;;;;5056856;28;20017;-76
2022/08/31 03:26:36;;;;;;;;;;;;;;;;;;5057876;28;19919;-76
2022/08/31 03:29:01;;;;;;;;;;;;;;;;;;5041191;28;20485;-77
2022/08/31 03:31:53;;;;;;;;;;;;;;;;;;5076487;28;20478;-76
2022/08/31 03:34:18;;;;;;;;;;;;;;;;;;5040980;28;20058;-76
2022/08/31 03:36:44;;;;;;;;;;;;;;;;;;5057651;28;19923;-76
2022/08/31 03:39:10;;;;;;;;;;;;;;;;;;5057809;28;19999;-75
2022/08/31 03:41:35;;;;;;;;;;;;;;;;;;5034825;28;20387;-76
2022/08/31 03:44:01;;;;;;;;;;;;;;;;;;5038238;28;20332;-76
2022/08/31 03:46:27;;;;;;;;;;;;;;;;;;5054192;28;19920;-77
2022/08/31 03:48:53;;;;;;;;;;;;;;;;;;5055519;28;20368;-76
2022/08/31 03:51:19;;;;;;;;;;;;;;;;;;5037705;28;20372;-75
2022/08/31 03:53:45;;;;;;;;;;;;;;;;;;5037392;28;19909;-75
2022/08/31 03:56:15;;;;;;;;;;;;;;;;;;5054364;28;20007;-75
2022/08/31 03:58:41;;;;;;;;;;;;;;;;;;5054239;28;20005;-76
2022/08/31 04:01:06;;;;;;;;;;;;;;;;;;5037570;28;20364;-76
2022/08/31 04:04:04;;;;;;;;;;;;;;;;;;5055046;28;20007;-76
2022/08/31 04:06:49;;;;;;;;;;;;;;;;;;5026836;28;19917;-76
2022/08/31 04:09:32;;;;;;;;;;;;;;;;;;5053285;28;19935;-75
2022/08/31 04:12:23;;;;;;;;;;;;;;;;;;5054012;28;19913;-76
2022/08/31 04:15:07;;;;;;;;;;;;;;;;;;5053656;28;19939;-75
2022/08/31 04:17:51;;;;;;;;;;;;;;;;;;5047765;28;20244;-76
2022/08/31 04:20:37;;;;;;;;;;;;;;;;;;5034300;28;20012;-76
2022/08/31 04:23:02;;;;;;;;;;;;;;;;;;5016957;28;19941;-76
2022/08/31 04:25:31;;;;;;;;;;;;;;;;;;5016908;28;19914;-76
2022/08/31 04:27:57;;;;;;;;;;;;;;;;;;5033953;28;20106;-75
2022/08/31 04:30:22;;;;;;;;;;;;;;;;;;4996748;28;19913;-76
2022/08/31 04:32:47;;;;;;;;;;;;;;;;;;4997067;28;19957;-77
2022/08/31 04:35:13;;;;;;;;;;;;;;;;;;4997009;28;19921;-75
2022/08/31 04:37:40;;;;;;;;;;;;;;;;;;4997005;28;19941;-77
2022/08/31 04:40:06;;;;;;;;;;;;;;;;;;4997046;28;19914;-77
2022/08/31 04:42:31;;;;;;;;;;;;;;;;;;4996988;28;20293;-77
2022/08/31 04:45:03;;;;;;;;;;;;;;;;;;4996991;28;19925;-76
2022/08/31 04:47:56;;;;;;;;;;;;;;;;;;4953040;29;19968;-76
2022/08/31 04:50:22;;;;;;;;;;;;;;;;;;4953683;29;19949;-76
2022/08/31 04:53:04;;;;;;;;;;;;;;;;;;4953595;29;20269;-75
2022/08/31 04:55:30;;;;;;;;;;;;;;;;;;4953721;29;20385;-77
2022/08/31 04:57:55;;;;;;;;;;;;;;;;;;4953581;29;19914;-77
2022/08/31 05:00:21;;;;;;;;;;;;;;;;;;4953155;29;19918;-76
2022/08/31 05:02:58;;;;;;;;;;;;;;;;;;4942130;29;19922;-77
2022/08/31 05:05:24;;;;;;;;;;;;;;;;;;4934182;29;19919;-76
2022/08/31 05:07:50;;;;;;;;;;;;;;;;;;4949946;29;20465;-76
2022/08/31 05:10:15;;;;;;;;;;;;;;;;;;4934039;29;19937;-75
2022/08/31 05:12:43;;;;;;;;;;;;;;;;;;4933668;29;20432;-77
2022/08/31 05:15:08;;;;;;;;;;;;;;;;;;4918111;29;19959;-77
2022/08/31 05:17:34;;;;;;;;;;;;;;;;;;4917731;29;19915;-76
2022/08/31 05:19:59;;;;;;;;;;;;;;;;;;4937597;29;19914;-76
2022/08/31 05:22:25;;;;;;;;;;;;;;;;;;4952713;28;19919;-75
2022/08/31 05:24:52;;;;;;;;;;;;;;;;;;4984358;28;19913;-76
2022/08/31 05:27:18;;;;;;;;;;;;;;;;;;5015127;28;20411;-76
2022/08/31 05:29:43;;;;;;;;;;;;;;;;;;4999072;28;20489;-77
2022/08/31 05:32:35;;;;;;;;;;;;;;;;;;5027722;28;19913;-76
2022/08/31 05:35:01;;;;;;;;;;;;;;;;;;5015114;28;19913;-77
2022/08/31 05:37:27;;;;;;;;;;;;;;;;;;4996464;28;19916;-76
2022/08/31 05:39:53;;;;;;;;;;;;;;;;;;4994935;28;19952;-76
2022/08/31 05:42:18;;;;;;;;;;;;;;;;;;4979246;28;19936;-76
2022/08/31 05:44:44;;;;;;;;;;;;;;;;;;4995239;28;20385;-75
2022/08/31 05:47:09;;;;;;;;;;;;;;;;;;5011494;28;19925;-76
2022/08/31 05:49:34;;;;;;;;;;;;;;;;;;4995417;28;19923;-76
2022/08/31 05:52:00;;;;;;;;;;;;;;;;;;5023013;28;19920;-77
2022/08/31 05:54:25;;;;;;;;;;;;;;;;;;5014923;28;20371;-76
2022/08/31 05:56:51;;;;;;;;;;;;;;;;;;5015250;28;19913;-75
2022/08/31 05:59:16;;;;;;;;;;;;;;;;;;4999261;28;20372;-76
2022/08/31 06:01:50;;;;;;;;;;;;;;;;;;5068909;28;19963;-75
2022/08/31 06:04:21;;;;;;;;;;;;;;;;;;5050867;28;20428;-76
2022/08/31 06:06:46;;;;;;;;;;;;;;;;;;5068007;28;19951;-77
2022/08/31 06:09:14;;;;;;;;;;;;;;;;;;5066990;28;19919;-76
2022/08/31 06:11:41;;;;;;;;;;;;;;;;;;5051599;28;19913;-77
2022/08/31 06:14:08;;;;;;;;;;;;;;;;;;5067634;28;19935;-76
2022/08/31 06:16:34;;;;;;;;;;;;;;;;;;5067863;28;19912;-76
2022/08/31 06:19:02;;;;;;;;;;;;;;;;;;5067539;28;19909;-77
2022/08/31 06:21:29;;;;;;;;;;;;;;;;;;5051040;28;19920;-77
2022/08/31 06:23:56;;;;;;;;;;;;;;;;;;5067485;28;19912;-77
2022/08/31 06:26:22;;;;;;;;;;;;;;;;;;5057328;28;19921;-77
2022/08/31 06:28:48;;;;;;;;;;;;;;;;;;5047290;28;20296;-77
2022/08/31 06:31:14;;;;;;;;;;;;;;;;;;5047461;28;19975;-76
2022/08/31 06:33:40;;;;;;;;;;;;;;;;;;5030554;28;19920;-74
2022/08/31 06:36:14;;;;;;;;;;;;;;;;;;5015398;28;20319;-76
2022/08/31 06:38:57;;;;;;;;;;;;;;;;;;5048661;28;19983;-76
2022/08/31 06:41:52;;;;;;;;;;;;;;;;;;5063576;28;19927;-76
2022/08/31 06:44:34;;;;;;;;;;;;;;;;;;5061273;28;19912;-76
2022/08/31 06:47:14;;;;;;;;;;;;;;;;;;5067604;28;19971;-76
2022/08/31 06:49:40;;;;;;;;;;;;;;;;;;5067391;28;20460;-77
2022/08/31 06:52:06;;;;;;;;;;;;;;;;;;5066873;28;19996;-76
2022/08/31 06:54:32;;;;;;;;;;;;;;;;;;5050270;28;20312;-77
2022/08/31 06:57:16;;;;;;;;;;;;;;;;;;5067114;28;19920;-77
2022/08/31 07:00:00;;;;;;;;;;;;;;;;;;5061206;28;20010;-77
2022/08/31 07:02:35;;;;;;;;;;;;;;;;;;5051374;28;20056;-76
2022/08/31 07:05:01;;;;;;;;;;;;;;;;;;5066642;28;19982;-77
2022/08/31 07:07:26;;;;;;;;;;;;;;;;;;5066501;28;19909;-77
2022/08/31 07:09:52;;;;;;;;;;;;;;;;;;5050080;28;20360;-76
2022/08/31 07:12:17;;;;;;;;;;;;;;;;;;5058462;28;19928;-76
2022/08/31 07:14:45;;;;;;;;;;;;;;;;;;5041897;28;19966;-77
2022/08/31 07:17:10;;;;;;;;;;;;;;;;;;5073136;28;19912;-77
2022/08/31 07:19:36;;;;;;;;;;;;;;;;;;5073109;28;20348;-77
2022/08/31 07:22:03;;;;;;;;;;;;;;;;;;5073104;28;20000;-74
2022/08/31 07:24:30;;;;;;;;;;;;;;;;;;5073002;28;19912;-77
2022/08/31 07:26:58;;;;;;;;;;;;;;;;;;5073183;28;20430;-77
2022/08/31 07:29:38;;;;;;;;;;;;;;;;;;5072937;28;20368;-77
2022/08/31 07:32:04;;;;;;;;;;;;;;;;;;5069868;28;19913;-78
2022/08/31 07:34:29;;;;;;;;;;;;;;;;;;5036418;28;20440;-78
2022/08/31 07:42:42;;;;;;;;;;;;;;;;;;5036809;28;19913;-76
2022/08/31 07:45:07;;;;;;;;;;;;;;;;;;5065201;28;19909;-79
2022/08/31 07:47:34;;;;;;;;;;;;;;;;;;5046556;28;19920;-78
2022/08/31 07:49:59;;;;;;;;;;;;;;;;;;5055330;28;19967;-80
2022/08/31 07:52:38;;;;;;;;;;;;;;;;;;5083641;28;19912;-77
2022/08/31 07:55:17;;;;;;;;;;;;;;;;;;5081803;28;19923;-78
2022/08/31 07:57:57;;;;;;;;;;;;;;;;;;5074566;28;20007;-78
2022/08/31 08:00:23;;;;;;;;;;;;;;;;;;5072502;28;19979;-78
2022/08/31 08:02:48;;;;;;;;;;;;;;;;;;5072283;28;19931;-76
2022/08/31 08:05:19;;;;;;;;;;;;;;;;;;5039521;28;19913;-77
2022/08/31 08:08:05;;;;;;;;;;;;;;;;;;5060020;28;20368;-76
2022/08/31 08:10:47;;;;;;;;;;;;;;;;;;5052554;28;19928;-77
2022/08/31 08:13:37;;;;;;;;;;;;;;;;;;5052087;28;20407;-76
2022/08/31 08:16:09;;;;;;;;;;;;;;;;;;5052252;28;19917;-78
2022/08/31 08:19:13;;;;;;;;;;;;;;;;;;4991523;28;19953;-77
2022/08/31 08:21:38;;;;;;;;;;;;;;;;;;4959281;28;20440;-77
2022/08/31 08:24:04;;;;;;;;;;;;;;;;;;5013181;28;19913;-79
2022/08/31 08:26:32;;;;;;;;;;;;;;;;;;5071959;28;20303;-77
2022/08/31 08:29:04;;;;;;;;;;;;;;;;;;5071880;28;19908;-78
2022/08/31 08:31:29;;;;;;;;;;;;;;;;;;5055257;28;19978;-77
2022/08/31 08:33:55;;;;;;;;;;;;;;;;;;5071311;28;20359;-78
2022/08/31 08:36:20;;;;;;;;;;;;;;;;;;5071863;28;19916;-78
2022/08/31 08:39:04;;;;;;;;;;;;;;;;;;5071501;28;19912;-81
2022/08/31 08:41:30;;;;;;;;;;;;;;;;;;5070324;28;20372;-78
2022/08/31 08:43:55;;;;;;;;;;;;;;;;;;5052757;28;20004;-79
2022/08/31 08:46:21;;;;;;;;;;;;;;;;;;5051654;28;19928;-79
2022/08/31 08:48:47;;;;;;;;;;;;;;;;;;5071382;28;19924;-78
2022/08/31 08:51:12;;;;;;;;;;;;;;;;;;5071133;28;20407;-78
2022/08/31 08:53:47;;;;;;;;;;;;;;;;;;5070913;28;19913;-79
2022/08/31 08:56:21;;;;;;;;;;;;;;;;;;5065261;28;19939;-78
2022/08/31 08:58:47;;;;;;;;;;;;;;;;;;5051337;28;19912;-78
2022/08/31 09:01:12;;;;;;;;;;;;;;;;;;5050965;28;19917;-77
2022/08/31 09:03:43;;;;;;;;;;;;;;;;;;5052701;28;19931;-83
2022/08/31 09:06:14;;;;;;;;;;;;;;;;;;5053909;28;20420;-85
2022/08/31 09:08:43;;;;;;;;;;;;;;;;;;5040057;28;19916;-80
2022/08/31 09:11:08;;;;;;;;;;;;;;;;;;5051834;28;20048;-78
2022/08/31 09:13:35;;;;;;;;;;;;;;;;;;5071173;28;19916;-79
2022/08/31 09:16:03;;;;;;;;;;;;;;;;;;5071374;28;19913;-79
2022/08/31 09:18:29;;;;;;;;;;;;;;;;;;5071171;28;19919;-78
2022/08/31 09:21:00;;;;;;;;;;;;;;;;;;5070613;28;19924;-78
2022/08/31 09:23:26;;;;;;;;;;;;;;;;;;5068171;28;20291;-83
2022/08/31 09:25:52;;;;;;;;;;;;;;;;;;5054112;28;19920;-83
2022/08/31 09:28:39;;;;;;;;;;;;;;;;;;5052715;28;19935;-83
2022/08/31 09:31:04;;;;;;;;;;;;;;;;;;5044942;28;20411;-78
2022/08/31 09:33:30;;;;;;;;;;;;;;;;;;5051645;28;19949;-77
2022/08/31 09:35:55;;;;;;;;;;;;;;;;;;5051905;28;19916;-78
2022/08/31 09:38:20;;;;;;;;;;;;;;;;;;5033956;28;20011;-78
2022/08/31 09:40:51;;;;;;;;;;;;;;;;;;5067221;28;19916;-77
2022/08/31 09:43:21;;;;;;;;;;;;;;;;;;5051462;28;19975;-76
2022/08/31 09:45:46;;;;;;;;;;;;;;;;;;5050368;28;19980;-78
2022/08/31 09:48:11;;;;;;;;;;;;;;;;;;5058674;28;20352;-77
2022/08/31 09:50:37;;;;;;;;;;;;;;;;;;5071540;28;20007;-78
2022/08/31 09:55:47;;;;;;;;;;;;;;;;;;5070598;28;19962;-77
2022/08/31 09:58:13;;;;;;;;;;;;;;;;;;5071499;28;19912;-78
2022/08/31 10:00:39;;;;;;;;;;;;;;;;;;5071469;28;19974;-79
2022/08/31 10:03:07;;;;;;;;;;;;;;;;;;5070357;28;20371;-77
2022/08/31 10:05:39;;;;;;;;;;;;;;;;;;5068709;28;20367;-77
2022/08/31 10:08:05;;;;;;;;;;;;;;;;;;5071576;28;20371;-77
2022/08/31 10:10:31;;;;;;;;;;;;;;;;;;5070345;28;19935;-77
2022/08/31 10:12:57;;;;;;;;;;;;;;;;;;5071391;28;20363;-76
2022/08/31 10:15:22;;;;;;;;;;;;;;;;;;5070261;28;20355;-78
2022/08/31 10:17:47;;;;;;;;;;;;;;;;;;5071296;28;19913;-77
2022/08/31 10:20:15;;;;;;;;;;;;;;;;;;5071296;28;19916;-77
2022/08/31 10:22:40;;;;;;;;;;;;;;;;;;5066988;28;19912;-78
2022/08/31 10:25:10;;;;;;;;;;;;;;;;;;5051760;28;20452;-78
2022/08/31 10:27:37;;;;;;;;;;;;;;;;;;5051259;28;19920;-78
2022/08/31 10:30:02;;;;;;;;;;;;;;;;;;5050209;28;19967;-80
2022/08/31 10:32:29;;;;;;;;;;;;;;;;;;5051219;28;19909;-77
2022/08/31 10:35:06;;;;;;;;;;;;;;;;;;5051022;28;19917;-79
2022/08/31 10:37:35;;;;;;;;;;;;;;;;;;5050262;28;20016;-77
2022/08/31 10:40:00;;;;;;;;;;;;;;;;;;5062390;28;19942;-79
2022/08/31 10:42:27;;;;;;;;;;;;;;;;;;5071192;28;19916;-78
2022/08/31 10:44:56;;;;;;;;;;;;;;;;;;5070131;28;19923;-80
2022/08/31 10:47:22;;;;;;;;;;;;;;;;;;5055149;28;20389;-81
2022/08/31 10:49:47;;;;;;;;;;;;;;;;;;5073580;28;19912;-79
2022/08/31 10:52:17;;;;;;;;;;;;;;;;;;5075058;28;20153;-81
2022/08/31 10:54:42;;;;;;;;;;;;;;;;;;5073008;28;19917;-81
2022/08/31 10:57:07;;;;;;;;;;;;;;;;;;5074986;28;20450;-84
2022/08/31 10:59:33;;;;;;;;;;;;;;;;;;5074671;28;19916;-83
2022/08/31 11:01:58;;;;;;;;;;;;;;;;;;5075031;28;19998;-83
2022/08/31 11:04:24;;;;;;;;;;;;;;;;;;5074443;28;19913;-83
2022/08/31 11:06:50;;;;;;;;;;;;;;;;;;5075846;28;19916;-84
2022/08/31 11:09:17;;;;;;;;;;;;;;;;;;5074811;28;19919;-84
2022/08/31 11:11:42;;;;;;;;;;;;;;;;;;5068598;28;19917;-82
2022/08/31 11:14:08;;;;;;;;;;;;;;;;;;5074520;28;20102;-83
2022/08/31 11:16:34;;;;;;;;;;;;;;;;;;5073696;28;19912;-82
2022/08/31 11:18:59;;;;;;;;;;;;;;;;;;5074762;28;19966;-82
2022/08/31 11:21:25;;;;;;;;;;;;;;;;;;5074606;28;20418;-83
2022/08/31 11:23:50;;;;;;;;;;;;;;;;;;5073053;28;19912;-79
2022/08/31 11:26:16;;;;;;;;;;;;;;;;;;5073180;28;19919;-84
2022/08/31 11:28:41;;;;;;;;;;;;;;;;;;5058787;28;19959;-82
2022/08/31 11:31:06;;;;;;;;;;;;;;;;;;5052913;28;19913;-79
2022/08/31 11:33:32;;;;;;;;;;;;;;;;;;5053586;28;19913;-79
2022/08/31 11:36:04;;;;;;;;;;;;;;;;;;5054119;28;20010;-80
2022/08/31 11:38:53;;;;;;;;;;;;;;;;;;5065449;28;19966;-78
2022/08/31 11:41:20;;;;;;;;;;;;;;;;;;5061163;28;19917;-82
2022/08/31 11:43:50;;;;;;;;;;;;;;;;;;5053529;28;20379;-79
2022/08/31 11:46:16;;;;;;;;;;;;;;;;;;5053448;28;20007;-86
2022/08/31 11:48:43;;;;;;;;;;;;;;;;;;5039031;28;20007;-81
2022/08/31 11:51:10;;;;;;;;;;;;;;;;;;5049463;28;19912;-80
2022/08/31 11:53:35;;;;;;;;;;;;;;;;;;5053587;28;19959;-79
2022/08/31 11:56:03;;;;;;;;;;;;;;;;;;5053655;28;19921;-80
2022/08/31 11:58:31;;;;;;;;;;;;;;;;;;5068525;28;20019;-78
2022/08/31 12:00:57;;;;;;;;;;;;;;;;;;5053211;28;19932;-79
2022/08/31 12:03:22;;;;;;;;;;;;;;;;;;5068762;28;19913;-79
2022/08/31 12:05:55;;;;;;;;;;;;;;;;;;5053562;28;19913;-79
2022/08/31 12:08:20;;;;;;;;;;;;;;;;;;5068675;28;20111;-79
2022/08/31 12:10:46;;;;;;;;;;;;;;;;;;5053462;28;20158;-78
2022/08/31 12:13:17;;;;;;;;;;;;;;;;;;5053693;28;19916;-78
2022/08/31 12:15:43;;;;;;;;;;;;;;;;;;5052841;28;19913;-80
2022/08/31 12:18:09;;;;;;;;;;;;;;;;;;5054016;28;19913;-79
2022/08/31 12:20:34;;;;;;;;;;;;;;;;;;5054729;28;19917;-78
2022/08/31 12:25:44;;;;;;;;;;;;;;;;;;5069385;28;20363;-80
2022/08/31 12:28:09;;;;;;;;;;;;;;;;;;5068858;28;19924;-80
2022/08/31 12:30:35;;;;;;;;;;;;;;;;;;5053328;28;20348;-79
2022/08/31 12:33:00;;;;;;;;;;;;;;;;;;5052650;28;19912;-79
2022/08/31 12:35:25;;;;;;;;;;;;;;;;;;5051798;28;19912;-79
2022/08/31 12:37:51;;;;;;;;;;;;;;;;;;5051661;28;19940;-79
2022/08/31 12:40:16;;;;;;;;;;;;;;;;;;5051427;28;19917;-79
2022/08/31 12:42:42;;;;;;;;;;;;;;;;;;5052341;28;19924;-80
2022/08/31 12:45:08;;;;;;;;;;;;;;;;;;5034798;28;20430;-80
2022/08/31 12:47:33;;;;;;;;;;;;;;;;;;5052710;28;19938;-80
2022/08/31 12:49:59;;;;;;;;;;;;;;;;;;5052755;28;19913;-80
2022/08/31 12:52:27;;;;;;;;;;;;;;;;;;5067370;28;19919;-80
2022/08/31 12:54:56;;;;;;;;;;;;;;;;;;5067285;28;19913;-80
2022/08/31 12:57:22;;;;;;;;;;;;;;;;;;5051052;28;19936;-80
2022/08/31 12:59:47;;;;;;;;;;;;;;;;;;5052354;28;19913;-79
2022/08/31 13:02:12;;;;;;;;;;;;;;;;;;5052375;28;19909;-80
2022/08/31 13:04:38;;;;;;;;;;;;;;;;;;5052168;28;20415;-80
2022/08/31 13:07:04;;;;;;;;;;;;;;;;;;5051051;28;19924;-81
2022/08/31 13:09:29;;;;;;;;;;;;;;;;;;5051697;28;19917;-80
2022/08/31 13:11:55;;;;;;;;;;;;;;;;;;5067347;28;19923;-80
2022/08/31 13:14:21;;;;;;;;;;;;;;;;;;5050601;28;20438;-81
2022/08/31 13:16:47;;;;;;;;;;;;;;;;;;5052036;28;19974;-81
2022/08/31 13:19:13;;;;;;;;;;;;;;;;;;5051757;28;19933;-79
2022/08/31 13:21:39;;;;;;;;;;;;;;;;;;5052223;28;19916;-80
2022/08/31 13:24:06;;;;;;;;;;;;;;;;;;5067128;28;19913;-82
2022/08/31 13:26:34;;;;;;;;;;;;;;;;;;5067086;28;19948;-81
2022/08/31 13:29:02;;;;;;;;;;;;;;;;;;5067305;28;19924;-80
2022/08/31 13:31:28;;;;;;;;;;;;;;;;;;5066975;28;19967;-80
2022/08/31 13:33:55;;;;;;;;;;;;;;;;;;5051224;28;19956;-80
2022/08/31 13:36:30;;;;;;;;;;;;;;;;;;5067265;28;20402;-81
2022/08/31 13:39:05;;;;;;;;;;;;;;;;;;5051643;28;19913;-81
2022/08/31 13:41:34;;;;;;;;;;;;;;;;;;5051622;28;19956;-80
2022/08/31 13:44:00;;;;;;;;;;;;;;;;;;5066793;28;19909;-79
2022/08/31 13:46:31;;;;;;;;;;;;;;;;;;5066933;28;19920;-81
2022/08/31 13:49:00;;;;;;;;;;;;;;;;;;5051352;28;19957;-81
2022/08/31 13:51:26;;;;;;;;;;;;;;;;;;5051375;28;19970;-79
2022/08/31 13:53:51;;;;;;;;;;;;;;;;;;5051250;28;19959;-78
2022/08/31 13:56:53;;;;;;;;;;;;;;;;;;5066685;28;19913;-78
2022/08/31 13:59:10;;;;;;;;;;;;;;;;;;5049616;28;19924;-80
2022/08/31 14:02:05;;;;;;;;;;;;;;;;;;5052536;28;20038;-78
2022/08/31 14:04:42;;;;;;;;;;;;;;;;;;5049586;28;19913;-78
2022/08/31 14:07:36;;;;;;;;;;;;;;;;;;5050379;28;19967;-79
2022/08/31 14:10:14;;;;;;;;;;;;;;;;;;5050356;28;19959;-78
2022/08/31 14:12:58;;;;;;;;;;;;;;;;;;5050466;28;19919;-80
2022/08/31 14:16:01;;;;;;;;;;;;;;;;;;5062615;28;19920;-80
2022/08/31 14:18:31;;;;;;;;;;;;;;;;;;5050589;28;19912;-80
2022/08/31 14:20:58;;;;;;;;;;;;;;;;;;5066947;28;20350;-80
2022/08/31 14:23:23;;;;;;;;;;;;;;;;;;5070389;28;19912;-79
2022/08/31 14:25:49;;;;;;;;;;;;;;;;;;5055755;28;19970;-79
2022/08/31 14:28:15;;;;;;;;;;;;;;;;;;5054403;28;19917;-80
2022/08/31 14:30:40;;;;;;;;;;;;;;;;;;5054546;28;19967;-80
2022/08/31 14:33:10;;;;;;;;;;;;;;;;;;5054916;28;20018;-79
2022/08/31 14:35:36;;;;;;;;;;;;;;;;;;5054104;28;20336;-79
2022/08/31 14:38:04;;;;;;;;;;;;;;;;;;5054924;28;19920;-81
2022/08/31 14:40:29;;;;;;;;;;;;;;;;;;5055153;28;19956;-79
2022/08/31 14:42:55;;;;;;;;;;;;;;;;;;5055188;28;19998;-78
2022/08/31 14:45:20;;;;;;;;;;;;;;;;;;5054764;28;20387;-79
2022/08/31 14:47:46;;;;;;;;;;;;;;;;;;5070380;28;19920;-78
2022/08/31 14:50:12;;;;;;;;;;;;;;;;;;5054871;28;19923;-78
2022/08/31 14:52:37;;;;;;;;;;;;;;;;;;5069782;28;20284;-79
2022/08/31 14:55:03;;;;;;;;;;;;;;;;;;5055629;28;19913;-79
2022/08/31 14:57:29;;;;;;;;;;;;;;;;;;5054952;28;19944;-78
2022/08/31 14:59:58;;;;;;;;;;;;;;;;;;5070234;28;19956;-79
2022/08/31 15:02:23;;;;;;;;;;;;;;;;;;5054686;28;20337;-79
2022/08/31 15:04:49;;;;;;;;;;;;;;;;;;5070092;28;19923;-79
2022/08/31 15:07:18;;;;;;;;;;;;;;;;;;5036653;28;20376;-80
2022/08/31 15:09:45;;;;;;;;;;;;;;;;;;5053379;28;19923;-80
2022/08/31 15:12:13;;;;;;;;;;;;;;;;;;5054811;28;19913;-79
2022/08/31 15:14:39;;;;;;;;;;;;;;;;;;5054875;28;20399;-79
2022/08/31 15:17:05;;;;;;;;;;;;;;;;;;5053478;28;19909;-79
2022/08/31 15:19:30;;;;;;;;;;;;;;;;;;5054672;28;19920;-79
2022/08/31 15:21:59;;;;;;;;;;;;;;;;;;5054341;28;19916;-79
2022/08/31 15:24:25;;;;;;;;;;;;;;;;;;5054376;28;19912;-80
2022/08/31 15:26:50;;;;;;;;;;;;;;;;;;5054767;28;20375;-80
2022/08/31 15:29:16;;;;;;;;;;;;;;;;;;5053624;28;19920;-79
2022/08/31 15:31:44;;;;;;;;;;;;;;;;;;5055150;28;20358;-79
2022/08/31 15:34:09;;;;;;;;;;;;;;;;;;5052745;28;20387;-80
2022/08/31 15:36:35;;;;;;;;;;;;;;;;;;5070215;28;19920;-80
2022/08/31 15:39:01;;;;;;;;;;;;;;;;;;5070110;28;19913;-79
2022/08/31 15:41:28;;;;;;;;;;;;;;;;;;5054638;28;19927;-79
2022/08/31 15:43:53;;;;;;;;;;;;;;;;;;5070652;28;19913;-80
2022/08/31 15:48:40;;;;;;;;;;;;;;;;;;5053681;28;19913;-79
2022/08/31 15:49:04;;;;;;;;;;;;;;;;;;5053932;28;19919;-79
2022/08/31 15:51:33;;;;;;;;;;;;;;;;;;5056023;28;19913;-79
2022/08/31 15:54:04;;;;;;;;;;;;;;;;;;5069705;28;19913;-81
2022/08/31 15:56:34;;;;;;;;;;;;;;;;;;5054203;28;19924;-81
2022/08/31 15:59:00;;;;;;;;;;;;;;;;;;5052996;28;20296;-77
2022/08/31 16:01:25;;;;;;;;;;;;;;;;;;5054312;28;19959;-79
2022/08/31 16:03:51;;;;;;;;;;;;;;;;;;5069965;28;19948;-78
2022/08/31 16:06:16;;;;;;;;;;;;;;;;;;5055398;28;20004;-79
2022/08/31 16:08:42;;;;;;;;;;;;;;;;;;5043974;23;19925;-75
2022/08/31 16:11:09;;;;;;;;;;;;;;;;;;5012835;28;20377;-77
2022/08/31 16:13:34;;;;;;;;;;;;;;;;;;5012702;28;19914;-76
2022/08/31 16:16:00;;;;;;;;;;;;;;;;;;5029406;28;20288;-77
2022/08/31 16:18:26;;;;;;;;;;;;;;;;;;5013870;28;19975;-77
2022/08/31 16:20:52;;;;;;;;;;;;;;;;;;5013725;28;19917;-77
2022/08/31 16:23:17;;;;;;;;;;;;;;;;;;4996756;28;19931;-77
2022/08/31 16:25:45;;;;;;;;;;;;;;;;;;5013011;28;19925;-76
2022/08/31 16:28:11;;;;;;;;;;;;;;;;;;5012580;28;19954;-76
2022/08/31 16:30:36;;;;;;;;;;;;;;;;;;5014024;28;20296;-75
2022/08/31 16:33:02;;;;;;;;;;;;;;;;;;5012633;28;20377;-77
2022/08/31 16:35:27;;;;;;;;;;;;;;;;;;5013764;28;20336;-77
2022/08/31 16:37:53;;;;;;;;;;;;;;;;;;5014696;28;20308;-77
2022/08/31 16:40:19;;;;;;;;;;;;;;;;;;5013119;28;19922;-76
2022/08/31 16:42:44;;;;;;;;;;;;;;;;;;5012879;28;19922;-77
2022/08/31 16:45:10;;;;;;;;;;;;;;;;;;4995981;28;20504;-77
2022/08/31 16:47:36;;;;;;;;;;;;;;;;;;5013084;28;19921;-76
2022/08/31 16:50:02;;;;;;;;;;;;;;;;;;5014797;28;20071;-77
2022/08/31 16:52:29;;;;;;;;;;;;;;;;;;5012786;28;19961;-76
2022/08/31 16:54:56;;;;;;;;;;;;;;;;;;5012469;28;19919;-76
2022/08/31 16:57:22;;;;;;;;;;;;;;;;;;4996196;28;20004;-77
2022/08/31 16:59:47;;;;;;;;;;;;;;;;;;5012174;28;19963;-76
2022/08/31 17:02:13;;;;;;;;;;;;;;;;;;4995865;28;19918;-76
2022/08/31 17:04:39;;;;;;;;;;;;;;;;;;5011546;28;19924;-75
2022/08/31 17:07:04;;;;;;;;;;;;;;;;;;5011906;28;19913;-77